createdAt,value
2019-02-02T00:00:16.305Z,4.17
2019-02-02T00:02:42.616Z,4.04
2019-02-02T00:05:08.926Z,4.20
2019-02-02T00:07:35.235Z,4.24
2019-02-02T00:10:01.665Z,4.00
2019-02-02T00:12:27.846Z,4.02
2019-02-02T00:14:54.162Z,3.96
2019-02-02T00:17:20.598Z,3.97
2019-02-02T00:19:46.776Z,3.99
2019-02-02T00:22:13.083Z,4.06
2019-02-02T00:24:41.122Z,3.91
2019-02-02T00:27:07.367Z,3.81
2019-02-02T00:29:33.683Z,3.79
2019-02-02T00:31:59.994Z,3.85
2019-02-02T00:34:26.308Z,3.67
2019-02-02T00:36:52.617Z,3.65
2019-02-02T00:39:18.934Z,3.67
2019-02-02T00:41:45.239Z,3.74
2019-02-02T00:44:11.558Z,3.81
2019-02-02T00:46:37.861Z,3.78
2019-02-02T00:49:04.171Z,3.75
2019-02-02T00:51:30.476Z,3.77
2019-02-02T00:53:56.803Z,3.83
2019-02-02T00:56:23.113Z,3.85
2019-02-02T00:58:49.465Z,3.97
2019-02-02T01:01:15.760Z,4.10
2019-02-02T01:03:42.086Z,4.29
2019-02-02T01:06:08.398Z,4.32
2019-02-02T01:08:34.705Z,4.33
2019-02-02T01:11:01.013Z,4.30
2019-02-02T01:13:27.324Z,4.36
2019-02-02T01:15:53.632Z,4.26
2019-02-02T01:18:19.952Z,4.09
2019-02-02T01:20:46.301Z,3.95
2019-02-02T01:23:12.579Z,3.95
2019-02-02T01:25:38.887Z,3.93
2019-02-02T01:28:05.767Z,3.95
2019-02-02T01:30:31.525Z,4.03
2019-02-02T01:32:57.833Z,4.05
2019-02-02T01:35:24.345Z,4.10
2019-02-02T01:37:50.657Z,4.14
2019-02-02T01:40:16.967Z,4.20
2019-02-02T01:42:43.314Z,4.24
2019-02-02T01:45:09.623Z,4.29
2019-02-02T01:47:35.946Z,4.19
2019-02-02T01:50:02.400Z,4.07
2019-02-02T01:52:28.566Z,3.85
2019-02-02T01:54:54.871Z,3.95
2019-02-02T01:57:21.181Z,4.06
2019-02-02T01:59:47.488Z,3.89
2019-02-02T02:02:13.801Z,3.95
2019-02-02T02:04:40.110Z,4.06
2019-02-02T02:07:06.417Z,4.04
2019-02-02T02:09:32.725Z,4.11
2019-02-02T02:11:59.034Z,4.00
2019-02-02T02:14:25.339Z,3.85
2019-02-02T02:16:51.651Z,3.79
2019-02-02T02:19:17.964Z,3.75
2019-02-02T02:21:44.279Z,3.83
2019-02-02T02:24:10.655Z,3.89
2019-02-02T02:26:36.919Z,3.82
2019-02-02T02:29:03.231Z,3.68
2019-02-02T02:31:29.538Z,3.63
2019-02-02T02:33:55.841Z,3.57
2019-02-02T02:36:22.155Z,3.49
2019-02-02T02:38:48.458Z,3.66
2019-02-02T02:41:14.772Z,3.74
2019-02-02T02:43:41.084Z,3.63
2019-02-02T02:46:07.402Z,3.55
2019-02-02T02:48:33.713Z,3.55
2019-02-02T02:51:00.024Z,3.52
2019-02-02T02:53:26.331Z,3.60
2019-02-02T02:55:52.646Z,3.68
2019-02-02T02:58:18.962Z,3.65
2019-02-02T03:00:45.271Z,3.57
2019-02-02T03:03:11.594Z,3.69
2019-02-02T03:05:37.911Z,3.72
2019-02-02T03:08:04.209Z,3.67
2019-02-02T03:10:30.517Z,3.53
2019-02-02T03:12:56.820Z,3.47
2019-02-02T03:15:23.266Z,3.32
2019-02-02T03:17:49.439Z,3.27
2019-02-02T03:20:15.753Z,3.36
2019-02-02T03:22:42.057Z,3.38
2019-02-02T03:25:08.369Z,3.45
2019-02-02T03:27:34.677Z,3.47
2019-02-02T03:30:01.167Z,3.37
2019-02-02T03:32:27.309Z,3.37
2019-02-02T03:34:53.611Z,3.38
2019-02-02T03:37:19.919Z,3.37
2019-02-02T03:39:46.227Z,3.42
2019-02-02T03:42:12.534Z,3.53
2019-02-02T03:44:38.845Z,3.52
2019-02-02T03:47:05.153Z,3.54
2019-02-02T03:49:31.461Z,3.52
2019-02-02T03:51:57.769Z,3.53
2019-02-02T03:54:24.082Z,3.45
2019-02-02T03:56:50.390Z,3.51
2019-02-02T03:59:16.694Z,3.46
2019-02-02T04:01:43.003Z,3.51
2019-02-02T04:04:09.303Z,3.42
2019-02-02T04:06:35.612Z,3.37
2019-02-02T04:09:01.915Z,3.21
2019-02-02T04:11:28.230Z,3.31
2019-02-02T04:13:54.537Z,3.49
2019-02-02T04:16:20.843Z,3.54
2019-02-02T04:18:47.149Z,3.61
2019-02-02T04:21:13.457Z,3.57
2019-02-02T04:23:39.763Z,3.66
2019-02-02T04:26:06.070Z,3.63
2019-02-02T04:28:32.374Z,3.55
2019-02-02T04:30:58.804Z,3.49
2019-02-02T04:33:24.985Z,3.44
2019-02-02T04:35:51.292Z,3.39
2019-02-02T04:38:17.605Z,3.46
2019-02-02T04:40:43.922Z,3.50
2019-02-02T04:43:10.233Z,3.50
2019-02-02T04:45:36.538Z,3.49
2019-02-02T04:48:02.844Z,3.35
2019-02-02T04:50:29.148Z,3.06
2019-02-02T04:52:55.455Z,3.15
2019-02-02T04:55:21.760Z,3.25
2019-02-02T04:57:48.074Z,3.37
2019-02-02T05:00:14.381Z,3.39
2019-02-02T05:02:40.688Z,3.31
2019-02-02T05:05:06.999Z,3.29
2019-02-02T05:07:33.313Z,3.30
2019-02-02T05:09:59.620Z,3.31
2019-02-02T05:12:25.930Z,3.25
2019-02-02T05:14:52.241Z,3.28
2019-02-02T05:17:18.555Z,3.18
2019-02-02T05:19:44.861Z,3.14
2019-02-02T05:22:11.178Z,3.05
2019-02-02T05:24:37.523Z,2.97
2019-02-02T05:27:03.858Z,2.94
2019-02-02T05:29:40.678Z,2.79
2019-02-02T05:31:56.471Z,2.60
2019-02-02T05:34:22.791Z,2.56
2019-02-02T05:36:49.088Z,2.72
2019-02-02T05:39:15.399Z,2.69
2019-02-02T05:41:41.705Z,2.70
2019-02-02T05:44:08.034Z,2.77
2019-02-02T05:46:34.390Z,2.78
2019-02-02T05:49:00.731Z,2.82
2019-02-02T05:51:27.051Z,2.85
2019-02-02T05:53:53.370Z,2.80
2019-02-02T05:56:19.678Z,2.76
2019-02-02T05:58:45.985Z,2.76
2019-02-02T06:01:12.313Z,2.70
2019-02-02T06:03:38.636Z,2.78
2019-02-02T06:06:04.949Z,2.70
2019-02-02T06:08:31.262Z,2.60
2019-02-02T06:10:57.574Z,2.62
2019-02-02T06:13:23.881Z,2.62
2019-02-02T06:15:50.193Z,2.69
2019-02-02T06:18:16.516Z,2.79
2019-02-02T06:20:42.823Z,2.98
2019-02-02T06:23:09.134Z,3.05
2019-02-02T06:25:35.441Z,3.22
2019-02-02T06:28:01.755Z,3.37
2019-02-02T06:30:28.064Z,3.40
2019-02-02T06:32:54.384Z,3.37
2019-02-02T06:35:20.693Z,3.25
2019-02-02T06:37:47.001Z,3.40
2019-02-02T06:40:13.307Z,3.46
2019-02-02T06:42:39.624Z,3.53
2019-02-02T06:45:05.927Z,3.74
2019-02-02T06:47:32.255Z,3.82
2019-02-02T06:49:58.541Z,3.78
2019-02-02T06:52:24.870Z,3.75
2019-02-02T06:54:51.204Z,3.81
2019-02-02T06:57:17.515Z,3.80
2019-02-02T06:59:43.821Z,4.02
2019-02-02T07:02:10.141Z,4.02
2019-02-02T07:04:36.449Z,4.15
2019-02-02T07:07:02.784Z,4.20
2019-02-02T07:09:29.096Z,4.27
2019-02-02T07:11:55.407Z,4.46
2019-02-02T07:14:21.717Z,4.64
2019-02-02T07:16:48.051Z,4.68
2019-02-02T07:19:14.364Z,4.81
2019-02-02T07:21:40.690Z,4.89
2019-02-02T07:24:07.016Z,4.97
2019-02-02T07:26:33.322Z,5.16
2019-02-02T07:28:59.628Z,5.36
2019-02-02T07:31:25.980Z,5.40
2019-02-02T07:33:52.281Z,5.50
2019-02-02T07:36:18.592Z,5.61
2019-02-02T07:38:44.901Z,5.71
2019-02-02T07:41:11.205Z,5.82
2019-02-02T07:43:37.521Z,5.84
2019-02-02T07:46:13.838Z,5.96
2019-02-02T07:48:35.265Z,6.06
2019-02-02T07:51:01.568Z,6.23
2019-02-02T07:53:27.876Z,6.23
2019-02-02T07:55:54.190Z,6.29
2019-02-02T07:58:20.502Z,6.27
2019-02-02T08:00:46.813Z,6.16
2019-02-02T08:03:13.119Z,6.23
2019-02-02T08:05:39.430Z,6.29
2019-02-02T08:08:05.741Z,6.40
2019-02-02T08:10:32.045Z,6.35
2019-02-02T08:12:58.367Z,6.43
2019-02-02T08:15:24.675Z,6.50
2019-02-02T08:17:51.093Z,6.48
2019-02-02T08:20:17.288Z,6.66
2019-02-02T08:22:43.649Z,6.91
2019-02-02T08:25:09.960Z,6.95
2019-02-02T08:27:36.267Z,6.87
2019-02-02T08:30:02.586Z,7.05
2019-02-02T08:32:28.896Z,7.17
2019-02-02T08:34:55.200Z,7.14
2019-02-02T08:37:21.508Z,7.39
2019-02-02T08:39:48.902Z,7.34
2019-02-02T08:42:15.208Z,7.35
2019-02-02T08:44:41.525Z,7.36
2019-02-02T08:47:07.881Z,7.45
2019-02-02T08:49:34.185Z,7.49
2019-02-02T08:52:00.490Z,7.46
2019-02-02T08:54:26.812Z,7.60
2019-02-02T08:56:53.115Z,7.75
2019-02-02T08:59:19.428Z,7.93
2019-02-02T09:01:48.099Z,8.12
2019-02-02T09:04:12.046Z,7.86
2019-02-02T09:06:39.355Z,7.99
2019-02-02T09:09:04.662Z,8.05
2019-02-02T09:11:30.971Z,8.00
2019-02-02T09:13:57.279Z,8.07
2019-02-02T09:16:23.678Z,8.00
2019-02-02T09:18:51.354Z,8.03
2019-02-02T09:21:16.295Z,7.99
2019-02-02T09:23:42.611Z,8.03
2019-02-02T09:26:08.924Z,8.04
2019-02-02T09:28:35.258Z,8.15
2019-02-02T09:31:01.560Z,8.24
2019-02-02T09:33:27.873Z,8.08
2019-02-02T09:35:54.200Z,8.01
2019-02-02T09:38:20.508Z,8.16
2019-02-02T09:40:46.841Z,8.39
2019-02-02T09:43:13.155Z,8.41
2019-02-02T09:45:39.465Z,8.40
2019-02-02T09:48:05.795Z,8.15
2019-02-02T09:50:32.096Z,8.31
2019-02-02T09:52:58.401Z,8.59
2019-02-02T09:55:24.728Z,8.62
2019-02-02T09:57:55.205Z,8.81
2019-02-02T10:00:17.352Z,8.94
2019-02-02T10:02:45.933Z,8.78
2019-02-02T10:05:09.992Z,8.90
2019-02-02T10:07:36.317Z,9.19
2019-02-02T10:10:02.630Z,9.35
2019-02-02T10:12:28.941Z,9.51
2019-02-02T10:14:55.247Z,9.88
2019-02-02T10:17:21.678Z,9.96
2019-02-02T10:19:47.876Z,9.98
2019-02-02T10:22:14.183Z,10.32
2019-02-02T10:24:40.493Z,10.57
2019-02-02T10:27:06.800Z,10.50
2019-02-02T10:29:33.132Z,10.41
2019-02-02T10:31:59.490Z,10.63
2019-02-02T10:34:25.827Z,10.80
2019-02-02T10:36:55.039Z,11.07
2019-02-02T10:39:21.877Z,11.38
2019-02-02T10:41:48.145Z,11.26
2019-02-02T10:44:14.480Z,11.13
2019-02-02T10:46:40.789Z,11.14
2019-02-02T10:49:07.098Z,11.39
2019-02-02T10:51:33.406Z,11.41
2019-02-02T10:53:59.758Z,11.56
2019-02-02T10:56:26.113Z,11.67
2019-02-02T10:58:52.426Z,11.77
2019-02-02T11:01:18.738Z,11.76
2019-02-02T11:03:45.053Z,11.60
2019-02-02T11:06:11.371Z,11.45
2019-02-02T11:08:37.847Z,11.40
2019-02-02T11:11:04.104Z,11.42
2019-02-02T11:13:30.489Z,11.47
2019-02-02T11:15:58.029Z,11.42
2019-02-02T11:18:24.220Z,11.62
2019-02-02T11:20:50.575Z,12.06
2019-02-02T11:23:16.763Z,11.94
2019-02-02T11:25:43.101Z,12.05
2019-02-02T11:28:09.574Z,12.25
2019-02-02T11:30:36.155Z,12.51
2019-02-02T11:33:02.416Z,12.57
2019-02-02T11:35:28.729Z,12.72
2019-02-02T11:37:55.034Z,12.99
2019-02-02T11:40:21.353Z,13.10
2019-02-02T11:42:47.667Z,12.81
2019-02-02T11:45:16.985Z,12.24
2019-02-02T11:47:43.185Z,12.14
2019-02-02T11:50:09.495Z,12.14
2019-02-02T11:52:35.805Z,12.22
2019-02-02T11:55:02.115Z,12.10
2019-02-02T11:57:28.427Z,11.95
2019-02-02T11:59:54.743Z,12.02
2019-02-02T12:02:21.059Z,12.12
2019-02-02T12:04:47.369Z,11.82
2019-02-02T12:07:14.050Z,11.44
2019-02-02T12:09:40.256Z,11.55
2019-02-02T12:12:06.567Z,11.68
2019-02-02T12:14:32.881Z,11.68
2019-02-02T12:16:59.187Z,11.73
2019-02-02T12:19:25.519Z,11.76
2019-02-02T12:21:51.813Z,11.64
2019-02-02T12:24:18.123Z,11.53
2019-02-02T12:26:44.437Z,11.65
2019-02-02T12:29:10.743Z,11.75
2019-02-02T12:31:37.059Z,11.92
2019-02-02T12:34:03.380Z,11.98
2019-02-02T12:36:29.700Z,12.13
2019-02-02T12:38:56.002Z,12.09
2019-02-02T12:41:22.313Z,12.05
2019-02-02T12:43:48.619Z,12.12
2019-02-02T12:46:14.928Z,12.14
2019-02-02T12:48:41.232Z,12.27
2019-02-02T12:51:07.556Z,12.12
2019-02-02T12:53:33.861Z,12.04
2019-02-02T12:56:00.168Z,12.00
2019-02-02T12:58:26.480Z,11.90
2019-02-02T13:00:52.818Z,11.86
2019-02-02T13:03:19.101Z,11.81
2019-02-02T13:05:45.414Z,11.84
2019-02-02T13:08:11.722Z,11.79
2019-02-02T13:10:38.030Z,11.76
2019-02-02T13:13:04.339Z,11.68
2019-02-02T13:15:30.651Z,11.58
2019-02-02T13:17:56.969Z,11.54
2019-02-02T13:20:23.309Z,11.57
2019-02-02T13:22:49.620Z,11.61
2019-02-02T13:25:15.936Z,11.64
2019-02-02T13:27:42.249Z,11.60
2019-02-02T13:30:08.557Z,11.57
2019-02-02T13:32:34.885Z,11.61
2019-02-02T13:35:01.193Z,11.62
2019-02-02T13:37:27.506Z,11.57
2019-02-02T13:39:53.815Z,11.47
2019-02-02T13:42:20.141Z,11.45
2019-02-02T13:44:46.449Z,11.42
2019-02-02T13:47:12.762Z,11.33
2019-02-02T13:49:39.066Z,11.28
2019-02-02T13:52:05.379Z,11.19
2019-02-02T13:54:31.686Z,11.20
2019-02-02T13:56:57.995Z,11.19
2019-02-02T13:59:24.300Z,11.20
2019-02-02T14:01:50.609Z,11.22
2019-02-02T14:04:16.917Z,11.17
2019-02-02T14:06:43.224Z,11.19
2019-02-02T14:09:09.531Z,11.23
2019-02-02T14:11:35.845Z,11.20
2019-02-02T14:14:02.168Z,11.19
2019-02-02T14:16:28.459Z,11.15
2019-02-02T14:18:54.770Z,11.05
2019-02-02T14:21:21.080Z,11.12
2019-02-02T14:23:47.395Z,11.14
2019-02-02T14:26:13.708Z,11.19
2019-02-02T14:28:40.034Z,11.24
2019-02-02T14:31:06.344Z,11.25
2019-02-02T14:33:32.674Z,11.10
2019-02-02T14:36:01.812Z,11.22
2019-02-02T14:38:25.331Z,11.21
2019-02-02T14:40:51.611Z,11.21
2019-02-02T14:43:17.948Z,11.25
2019-02-02T14:45:44.252Z,11.23
2019-02-02T14:48:10.561Z,11.24
2019-02-02T14:50:36.869Z,11.18
2019-02-02T14:53:03.179Z,10.94
2019-02-02T14:55:29.533Z,10.80
2019-02-02T14:57:55.798Z,10.63
2019-02-02T15:00:22.114Z,10.44
2019-02-02T15:02:48.428Z,10.33
2019-02-02T15:05:14.732Z,10.38
2019-02-02T15:07:41.042Z,10.35
2019-02-02T15:10:07.347Z,10.25
2019-02-02T15:12:33.676Z,10.46
2019-02-02T15:14:59.980Z,10.41
2019-02-02T15:17:26.283Z,10.09
2019-02-02T15:19:52.588Z,9.96
2019-02-02T15:22:18.926Z,9.93
2019-02-02T15:24:45.234Z,9.83
2019-02-02T15:27:14.461Z,9.77
2019-02-02T15:29:37.862Z,10.03
2019-02-02T15:32:04.164Z,9.99
2019-02-02T15:34:30.472Z,9.70
2019-02-02T15:36:56.783Z,9.53
2019-02-02T15:39:23.105Z,9.38
2019-02-02T15:41:53.033Z,9.32
2019-02-02T15:44:15.718Z,9.30
2019-02-02T15:46:49.201Z,9.21
2019-02-02T15:49:08.680Z,9.20
2019-02-02T15:51:40.221Z,9.18
2019-02-02T15:54:01.307Z,9.05
2019-02-02T15:56:27.616Z,8.95
2019-02-02T15:58:53.919Z,8.86
2019-02-02T16:01:20.226Z,8.78
2019-02-02T16:03:49.666Z,8.72
2019-02-02T16:06:12.843Z,8.73
2019-02-02T16:08:39.154Z,8.71
2019-02-02T16:11:05.473Z,8.66
2019-02-02T16:13:31.779Z,8.60
2019-02-02T16:15:58.104Z,8.55
2019-02-02T16:18:24.412Z,8.56
2019-02-02T16:20:50.718Z,8.57
2019-02-02T16:23:17.023Z,8.53
2019-02-02T16:25:43.332Z,8.41
2019-02-02T16:28:09.696Z,8.38
2019-02-02T16:30:36.017Z,8.37
2019-02-02T16:33:02.344Z,8.24
2019-02-02T16:35:28.666Z,8.15
2019-02-02T16:37:54.987Z,8.14
2019-02-02T16:40:21.320Z,8.16
2019-02-02T16:42:47.637Z,8.08
2019-02-02T16:45:13.967Z,8.02
2019-02-02T16:47:40.288Z,8.00
2019-02-02T16:50:06.609Z,7.93
2019-02-02T16:52:32.914Z,7.85
2019-02-02T16:54:59.237Z,7.80
2019-02-02T16:57:25.542Z,7.78
2019-02-02T16:59:51.847Z,7.75
2019-02-02T17:02:18.177Z,7.71
2019-02-02T17:04:44.486Z,7.68
2019-02-02T17:07:10.872Z,7.66
2019-02-02T17:09:37.118Z,7.65
2019-02-02T17:12:03.431Z,7.62
2019-02-02T17:14:29.759Z,7.61
2019-02-02T17:16:56.064Z,7.56
2019-02-02T17:19:22.375Z,7.44
2019-02-02T17:21:48.723Z,7.39
2019-02-02T17:24:16.004Z,7.39
2019-02-02T17:26:42.315Z,7.41
2019-02-02T17:29:08.620Z,7.46
2019-02-02T17:31:34.929Z,7.49
2019-02-02T17:34:01.233Z,7.52
2019-02-02T17:36:27.558Z,7.54
2019-02-02T17:38:53.867Z,7.54
2019-02-02T17:41:20.425Z,7.50
2019-02-02T17:43:46.736Z,7.62
2019-02-02T17:46:13.175Z,7.61
2019-02-02T17:48:39.489Z,7.56
2019-02-02T17:51:05.801Z,7.67
2019-02-02T17:53:32.104Z,7.67
2019-02-02T17:55:58.416Z,7.63
2019-02-02T17:58:24.728Z,7.58
2019-02-02T18:00:51.031Z,7.54
2019-02-02T18:03:17.339Z,7.45
2019-02-02T18:05:43.651Z,7.37
2019-02-02T18:08:09.950Z,7.33
2019-02-02T18:10:36.270Z,7.33
2019-02-02T18:13:02.580Z,7.31
2019-02-02T18:15:28.893Z,7.33
2019-02-02T18:17:55.209Z,7.35
2019-02-02T18:20:21.517Z,7.36
2019-02-02T18:22:47.832Z,7.36
2019-02-02T18:25:14.141Z,7.35
2019-02-02T18:27:40.444Z,7.41
2019-02-02T18:30:06.827Z,7.39
2019-02-02T18:32:33.394Z,7.34
2019-02-02T18:34:59.739Z,7.28
2019-02-02T18:37:26.071Z,7.29
2019-02-02T18:39:52.384Z,7.22
2019-02-02T18:42:18.678Z,7.12
2019-02-02T18:44:45.272Z,7.05
2019-02-02T18:47:11.575Z,7.09
2019-02-02T18:49:37.976Z,7.10
2019-02-02T18:52:06.207Z,7.21
2019-02-02T18:54:30.639Z,7.13
2019-02-02T18:56:56.921Z,6.97
2019-02-02T18:59:23.230Z,6.83
2019-02-02T19:01:49.630Z,6.87
2019-02-02T19:04:28.506Z,6.87
2019-02-02T19:06:48.693Z,6.79
2019-02-02T19:09:14.998Z,6.71
2019-02-02T19:11:41.395Z,6.74
2019-02-02T19:14:07.705Z,6.73
2019-02-02T19:16:34.025Z,6.73
2019-02-02T19:19:00.335Z,6.71
2019-02-02T19:21:26.693Z,6.74
2019-02-02T19:23:52.954Z,6.76
2019-02-02T19:26:19.258Z,6.79
2019-02-02T19:28:45.579Z,6.77
2019-02-02T19:31:11.867Z,6.49
2019-02-02T19:33:38.171Z,6.53
2019-02-02T19:36:04.478Z,6.46
2019-02-02T19:38:30.795Z,6.34
2019-02-02T19:40:57.103Z,6.26
2019-02-02T19:43:23.412Z,6.20
2019-02-02T19:45:49.739Z,6.17
2019-02-02T19:48:16.065Z,6.26
2019-02-02T19:50:42.451Z,6.37
2019-02-02T19:53:08.906Z,6.33
2019-02-02T19:55:35.168Z,6.32
2019-02-02T19:58:01.475Z,6.31
2019-02-02T20:00:27.787Z,6.27
2019-02-02T20:02:54.095Z,6.35
2019-02-02T20:05:28.139Z,6.26
2019-02-02T20:07:46.707Z,6.26
2019-02-02T20:10:13.056Z,6.22
2019-02-02T20:12:39.361Z,6.12
2019-02-02T20:15:05.686Z,6.23
2019-02-02T20:17:31.994Z,6.23
2019-02-02T20:19:58.306Z,6.22
2019-02-02T20:22:24.616Z,6.28
2019-02-02T20:24:50.923Z,6.36
2019-02-02T20:27:17.263Z,6.47
2019-02-02T20:29:43.569Z,6.42
2019-02-02T20:32:12.641Z,6.38
2019-02-02T20:34:38.960Z,6.29
2019-02-02T20:37:05.271Z,6.24
2019-02-02T20:39:31.578Z,6.24
2019-02-02T20:41:59.794Z,6.20
2019-02-02T20:44:24.208Z,6.22
2019-02-02T20:46:50.509Z,6.05
2019-02-02T20:49:16.825Z,6.00
2019-02-02T20:51:43.124Z,5.99
2019-02-02T20:54:09.560Z,5.89
2019-02-02T20:56:35.741Z,5.96
2019-02-02T20:59:02.055Z,5.88
2019-02-02T21:01:28.367Z,5.94
2019-02-02T21:03:54.687Z,5.88
2019-02-02T21:06:20.981Z,5.83
2019-02-02T21:08:47.288Z,5.92
2019-02-02T21:11:13.629Z,6.02
2019-02-02T21:13:40.015Z,6.00
2019-02-02T21:16:06.246Z,5.96
2019-02-02T21:18:32.561Z,5.98
2019-02-02T21:20:58.868Z,6.10
2019-02-02T21:23:25.175Z,6.04
2019-02-02T21:25:51.540Z,5.94
2019-02-02T21:28:17.878Z,6.01
2019-02-02T21:30:44.199Z,5.95
2019-02-02T21:33:10.502Z,5.85
2019-02-02T21:35:37.827Z,5.89
2019-02-02T21:38:04.132Z,5.86
2019-02-02T21:40:30.478Z,5.93
2019-02-02T21:42:56.781Z,6.02
2019-02-02T21:45:23.100Z,6.04
2019-02-02T21:47:49.410Z,5.90
2019-02-02T21:50:15.762Z,5.97
2019-02-02T21:52:42.075Z,5.91
2019-02-02T21:55:08.379Z,5.88
2019-02-02T21:57:34.683Z,5.66
2019-02-02T22:00:01.003Z,5.74
2019-02-02T22:02:27.348Z,5.79
2019-02-02T22:04:53.698Z,5.82
2019-02-02T22:07:20.018Z,5.95
2019-02-02T22:09:46.325Z,5.97
2019-02-02T22:12:12.628Z,5.96
2019-02-02T22:14:39.067Z,6.01
2019-02-02T22:17:05.381Z,5.92
2019-02-02T22:19:31.823Z,5.87
2019-02-02T22:21:58.135Z,5.73
2019-02-02T22:24:24.575Z,5.70
2019-02-02T22:26:51.018Z,5.82
2019-02-02T22:29:17.467Z,5.92
2019-02-02T22:31:43.771Z,5.99
2019-02-02T22:34:10.089Z,6.01
2019-02-02T22:36:36.410Z,5.99
2019-02-02T22:39:02.734Z,6.03
2019-02-02T22:41:29.044Z,6.00
2019-02-02T22:43:55.353Z,5.93
2019-02-02T22:46:21.667Z,5.95
2019-02-02T22:48:47.977Z,5.98
2019-02-02T22:51:14.305Z,6.06
2019-02-02T22:53:40.640Z,6.08
2019-02-02T22:56:06.959Z,6.15
2019-02-02T22:58:35.771Z,6.03
2019-02-02T23:01:02.081Z,6.03
2019-02-02T23:03:28.507Z,6.08
2019-02-02T23:05:54.695Z,6.01
2019-02-02T23:08:21.007Z,6.04
2019-02-02T23:10:47.428Z,5.94
2019-02-02T23:13:13.735Z,5.96
2019-02-02T23:15:46.144Z,6.01
2019-02-02T23:18:12.394Z,5.92
2019-02-02T23:20:38.703Z,5.99
2019-02-02T23:23:05.038Z,6.13
2019-02-02T23:25:31.399Z,6.25
2019-02-02T23:27:57.711Z,6.36
2019-02-02T23:30:24.014Z,6.23
2019-02-02T23:32:54.951Z,6.20
2019-02-02T23:35:16.816Z,6.08
2019-02-02T23:37:43.124Z,5.96
2019-02-02T23:40:09.519Z,5.91
2019-02-02T23:42:36.249Z,5.88
2019-02-02T23:45:02.560Z,5.82
2019-02-02T23:47:28.868Z,5.76
2019-02-02T23:49:55.373Z,5.90
2019-02-02T23:52:21.510Z,5.88
2019-02-02T23:54:47.818Z,5.83
2019-02-02T23:57:14.130Z,5.90
2019-02-02T23:59:40.433Z,5.91
